sensor_id;sensor_type;location;lat;lon;timestamp;pressure;altitude;pressure_sealevel;temperature;humidity
50368;BME280;36281;34.132;-118.018;2023-02-21T00:00:04;100037.44;;;23.89;22.22
50368;BME280;36281;34.132;-118.018;2023-02-21T00:02:52;100034.81;;;23.84;22.53
50368;BME280;36281;34.132;-118.018;2023-02-21T00:05:39;100044.13;;;23.78;22.98
50368;BME280;36281;34.132;-118.018;2023-02-21T00:08:26;100038.88;;;23.67;23.51
50368;BME280;36281;34.132;-118.018;2023-02-21T00:11:14;100033.66;;;23.52;23.18
50368;BME280;36281;34.132;-118.018;2023-02-21T00:14:03;100051.91;;;23.41;23.16
50368;BME280;36281;34.132;-118.018;2023-02-21T00:16:50;100049.88;;;23.33;23.54
50368;BME280;36281;34.132;-118.018;2023-02-21T00:19:37;100049.66;;;23.30;23.69
50368;BME280;36281;34.132;-118.018;2023-02-21T00:22:25;100049.00;;;23.19;23.66
50368;BME280;36281;34.132;-118.018;2023-02-21T00:25:12;100050.97;;;23.13;23.96
50368;BME280;36281;34.132;-118.018;2023-02-21T00:28:00;100045.69;;;23.03;23.73
50368;BME280;36281;34.132;-118.018;2023-02-21T00:30:49;100054.19;;;22.91;24.34
50368;BME280;36281;34.132;-118.018;2023-02-21T00:33:36;100059.44;;;22.83;25.15
50368;BME280;36281;34.132;-118.018;2023-02-21T00:36:23;100064.66;;;22.74;25.60
50368;BME280;36281;34.132;-118.018;2023-02-21T00:39:11;100065.56;;;22.64;25.78
50368;BME280;36281;34.132;-118.018;2023-02-21T00:41:58;100066.97;;;22.57;25.31
50368;BME280;36281;34.132;-118.018;2023-02-21T00:44:46;100074.31;;;22.51;25.68
50368;BME280;36281;34.132;-118.018;2023-02-21T00:47:35;100071.72;;;22.41;24.75
50368;BME280;36281;34.132;-118.018;2023-02-21T00:50:22;100074.25;;;22.32;25.03
50368;BME280;36281;34.132;-118.018;2023-02-21T00:53:09;100071.13;;;22.20;25.22
50368;BME280;36281;34.132;-118.018;2023-02-21T00:55:56;100074.69;;;22.10;25.49
50368;BME280;36281;34.132;-118.018;2023-02-21T00:58:44;100076.41;;;21.96;25.52
50368;BME280;36281;34.132;-118.018;2023-02-21T01:01:31;100069.50;;;21.85;25.94
50368;BME280;36281;34.132;-118.018;2023-02-21T01:04:20;100059.34;;;21.72;26.13
50368;BME280;36281;34.132;-118.018;2023-02-21T01:07:08;100066.97;;;21.64;26.46
50368;BME280;36281;34.132;-118.018;2023-02-21T01:09:55;100072.38;;;21.59;26.69
50368;BME280;36281;34.132;-118.018;2023-02-21T01:12:43;100067.84;;;21.50;26.36
50368;BME280;36281;34.132;-118.018;2023-02-21T01:15:30;100065.75;;;21.41;26.15
50368;BME280;36281;34.132;-118.018;2023-02-21T01:18:18;100070.38;;;21.31;26.25
50368;BME280;36281;34.132;-118.018;2023-02-21T01:21:11;100075.53;;;21.17;26.43
50368;BME280;36281;34.132;-118.018;2023-02-21T01:23:59;100071.56;;;21.04;25.95
50368;BME280;36281;34.132;-118.018;2023-02-21T01:26:46;100071.03;;;20.97;25.93
50368;BME280;36281;34.132;-118.018;2023-02-21T01:29:33;100061.09;;;20.87;26.39
50368;BME280;36281;34.132;-118.018;2023-02-21T01:32:21;100066.28;;;20.79;26.40
50368;BME280;36281;34.132;-118.018;2023-02-21T01:35:08;100068.44;;;20.72;26.63
50368;BME280;36281;34.132;-118.018;2023-02-21T01:37:57;100069.53;;;20.60;26.72
50368;BME280;36281;34.132;-118.018;2023-02-21T01:40:44;100069.56;;;20.50;27.03
50368;BME280;36281;34.132;-118.018;2023-02-21T01:43:32;100071.69;;;20.43;27.61
50368;BME280;36281;34.132;-118.018;2023-02-21T01:46:20;100067.13;;;20.33;29.08
50368;BME280;36281;34.132;-118.018;2023-02-21T01:49:10;100076.84;;;20.24;29.27
50368;BME280;36281;34.132;-118.018;2023-02-21T01:52:00;100070.41;;;20.15;29.05
50368;BME280;36281;34.132;-118.018;2023-02-21T01:54:52;100075.50;;;20.06;29.39
50368;BME280;36281;34.132;-118.018;2023-02-21T01:57:41;100075.22;;;19.98;29.78
50368;BME280;36281;34.132;-118.018;2023-02-21T02:00:31;100072.81;;;19.86;30.05
50368;BME280;36281;34.132;-118.018;2023-02-21T02:03:20;100079.78;;;19.77;31.08
50368;BME280;36281;34.132;-118.018;2023-02-21T02:06:09;100075.72;;;19.64;30.73
50368;BME280;36281;34.132;-118.018;2023-02-21T02:08:58;100077.81;;;19.52;31.16
50368;BME280;36281;34.132;-118.018;2023-02-21T02:12:07;100070.53;;;19.32;31.75
50368;BME280;36281;34.132;-118.018;2023-02-21T02:15:14;100072.66;;;19.20;31.92
50368;BME280;36281;34.132;-118.018;2023-02-21T02:18:05;100074.72;;;19.07;32.73
50368;BME280;36281;34.132;-118.018;2023-02-21T02:23:56;100062.28;;;18.81;32.96
50368;BME280;36281;34.132;-118.018;2023-02-21T02:29:55;100059.19;;;18.62;33.23
50368;BME280;36281;34.132;-118.018;2023-02-21T02:32:49;100063.16;;;18.54;33.55
50368;BME280;36281;34.132;-118.018;2023-02-21T02:35:25;100067.16;;;18.47;33.85
50368;BME280;36281;34.132;-118.018;2023-02-21T02:37:59;100064.13;;;18.38;33.81
50368;BME280;36281;34.132;-118.018;2023-02-21T02:40:34;100056.31;;;18.31;34.13
50368;BME280;36281;34.132;-118.018;2023-02-21T02:43:10;100062.16;;;18.23;33.75
50368;BME280;36281;34.132;-118.018;2023-02-21T02:45:46;100065.56;;;18.14;34.32
50368;BME280;36281;34.132;-118.018;2023-02-21T02:48:21;100080.28;;;18.06;34.58
50368;BME280;36281;34.132;-118.018;2023-02-21T02:50:53;100076.16;;;17.98;34.74
50368;BME280;36281;34.132;-118.018;2023-02-21T02:53:25;100076.88;;;17.89;33.74
50368;BME280;36281;34.132;-118.018;2023-02-21T02:55:57;100071.44;;;17.78;34.78
50368;BME280;36281;34.132;-118.018;2023-02-21T02:58:28;100069.44;;;17.69;35.73
50368;BME280;36281;34.132;-118.018;2023-02-21T03:01:09;100065.06;;;17.57;35.75
50368;BME280;36281;34.132;-118.018;2023-02-21T03:04:02;100058.53;;;17.48;35.70
50368;BME280;36281;34.132;-118.018;2023-02-21T03:06:46;100053.06;;;17.38;35.82
50368;BME280;36281;34.132;-118.018;2023-02-21T03:09:23;100052.47;;;17.31;36.26
50368;BME280;36281;34.132;-118.018;2023-02-21T03:12:00;100055.31;;;17.24;36.67
50368;BME280;36281;34.132;-118.018;2023-02-21T03:14:35;100051.25;;;17.17;37.04
50368;BME280;36281;34.132;-118.018;2023-02-21T03:17:09;100055.41;;;17.08;37.33
50368;BME280;36281;34.132;-118.018;2023-02-21T03:19:42;100049.13;;;16.97;37.66
50368;BME280;36281;34.132;-118.018;2023-02-21T03:22:15;100058.38;;;16.89;37.52
50368;BME280;36281;34.132;-118.018;2023-02-21T03:24:47;100056.22;;;16.86;38.07
50368;BME280;36281;34.132;-118.018;2023-02-21T03:27:17;100051.28;;;16.78;38.06
50368;BME280;36281;34.132;-118.018;2023-02-21T03:29:48;100055.16;;;16.70;37.92
50368;BME280;36281;34.132;-118.018;2023-02-21T03:32:21;100053.41;;;16.59;37.31
50368;BME280;36281;34.132;-118.018;2023-02-21T03:34:52;100054.16;;;16.54;37.93
50368;BME280;36281;34.132;-118.018;2023-02-21T03:37:30;100061.28;;;16.49;38.32
50368;BME280;36281;34.132;-118.018;2023-02-21T03:40:00;100055.06;;;16.43;38.23
50368;BME280;36281;34.132;-118.018;2023-02-21T03:42:30;100057.66;;;16.38;38.40
50368;BME280;36281;34.132;-118.018;2023-02-21T03:44:59;100052.25;;;16.33;39.16
50368;BME280;36281;34.132;-118.018;2023-02-21T03:47:28;100048.09;;;16.25;39.19
50368;BME280;36281;34.132;-118.018;2023-02-21T03:49:57;100055.25;;;16.20;39.74
50368;BME280;36281;34.132;-118.018;2023-02-21T03:52:27;100048.13;;;16.09;39.33
50368;BME280;36281;34.132;-118.018;2023-02-21T03:54:56;100042.44;;;16.05;39.80
50368;BME280;36281;34.132;-118.018;2023-02-21T03:57:25;100041.31;;;16.01;40.32
50368;BME280;36281;34.132;-118.018;2023-02-21T03:59:54;100039.41;;;15.96;40.13
50368;BME280;36281;34.132;-118.018;2023-02-21T04:02:23;100042.47;;;15.88;40.00
50368;BME280;36281;34.132;-118.018;2023-02-21T04:04:52;100045.03;;;15.83;40.79
50368;BME280;36281;34.132;-118.018;2023-02-21T04:07:21;100049.72;;;15.76;40.54
50368;BME280;36281;34.132;-118.018;2023-02-21T04:09:52;100050.22;;;15.73;40.31
50368;BME280;36281;34.132;-118.018;2023-02-21T04:12:21;100057.34;;;15.67;39.74
50368;BME280;36281;34.132;-118.018;2023-02-21T04:14:50;100050.22;;;15.61;41.26
50368;BME280;36281;34.132;-118.018;2023-02-21T04:17:20;100049.34;;;15.56;40.92
50368;BME280;36281;34.132;-118.018;2023-02-21T04:19:49;100047.16;;;15.52;41.52
50368;BME280;36281;34.132;-118.018;2023-02-21T04:22:18;100051.09;;;15.50;41.52
50368;BME280;36281;34.132;-118.018;2023-02-21T04:24:47;100058.22;;;15.44;41.04
50368;BME280;36281;34.132;-118.018;2023-02-21T04:27:17;100055.44;;;15.39;41.64
50368;BME280;36281;34.132;-118.018;2023-02-21T04:29:47;100054.88;;;15.37;42.07
50368;BME280;36281;34.132;-118.018;2023-02-21T04:32:16;100062.56;;;15.34;42.05
50368;BME280;36281;34.132;-118.018;2023-02-21T04:34:45;100061.41;;;15.30;42.52
50368;BME280;36281;34.132;-118.018;2023-02-21T04:37:14;100059.22;;;15.27;42.94
50368;BME280;36281;34.132;-118.018;2023-02-21T04:39:43;100048.44;;;15.21;43.61
50368;BME280;36281;34.132;-118.018;2023-02-21T04:42:12;100051.34;;;15.20;44.07
50368;BME280;36281;34.132;-118.018;2023-02-21T04:44:43;100049.38;;;15.15;43.90
50368;BME280;36281;34.132;-118.018;2023-02-21T04:47:26;100049.28;;;15.10;43.76
50368;BME280;36281;34.132;-118.018;2023-02-21T04:49:55;100048.97;;;15.07;43.25
50368;BME280;36281;34.132;-118.018;2023-02-21T04:52:24;100051.03;;;15.05;43.57
50368;BME280;36281;34.132;-118.018;2023-02-21T04:54:53;100044.09;;;15.04;44.61
50368;BME280;36281;34.132;-118.018;2023-02-21T04:57:22;100044.56;;;15.00;44.21
50368;BME280;36281;34.132;-118.018;2023-02-21T04:59:58;100048.16;;;14.94;44.06
50368;BME280;36281;34.132;-118.018;2023-02-21T05:02:27;100051.88;;;14.93;44.22
50368;BME280;36281;34.132;-118.018;2023-02-21T05:04:56;100050.72;;;14.89;44.29
50368;BME280;36281;34.132;-118.018;2023-02-21T05:07:25;100047.72;;;14.86;44.37
50368;BME280;36281;34.132;-118.018;2023-02-21T05:09:54;100050.06;;;14.82;44.56
50368;BME280;36281;34.132;-118.018;2023-02-21T05:12:23;100053.75;;;14.81;44.58
50368;BME280;36281;34.132;-118.018;2023-02-21T05:14:52;100049.13;;;14.77;44.41
50368;BME280;36281;34.132;-118.018;2023-02-21T05:17:23;100049.38;;;14.75;44.61
50368;BME280;36281;34.132;-118.018;2023-02-21T05:19:52;100054.94;;;14.73;44.97
50368;BME280;36281;34.132;-118.018;2023-02-21T05:22:22;100055.19;;;14.72;44.75
50368;BME280;36281;34.132;-118.018;2023-02-21T05:24:51;100060.97;;;14.69;44.26
50368;BME280;36281;34.132;-118.018;2023-02-21T05:27:21;100057.75;;;14.67;45.06
50368;BME280;36281;34.132;-118.018;2023-02-21T05:29:51;100058.75;;;14.66;45.13
50368;BME280;36281;34.132;-118.018;2023-02-21T05:32:22;100055.97;;;14.61;45.11
50368;BME280;36281;34.132;-118.018;2023-02-21T05:34:52;100051.69;;;14.60;44.79
50368;BME280;36281;34.132;-118.018;2023-02-21T05:37:21;100043.59;;;14.55;45.52
50368;BME280;36281;34.132;-118.018;2023-02-21T05:39:50;100055.56;;;14.52;46.07
50368;BME280;36281;34.132;-118.018;2023-02-21T05:42:19;100046.97;;;14.50;45.91
50368;BME280;36281;34.132;-118.018;2023-02-21T05:44:48;100053.34;;;14.49;46.11
50368;BME280;36281;34.132;-118.018;2023-02-21T05:47:17;100049.06;;;14.48;45.84
50368;BME280;36281;34.132;-118.018;2023-02-21T05:49:48;100042.09;;;14.47;45.91
50368;BME280;36281;34.132;-118.018;2023-02-21T05:52:17;100055.41;;;14.47;46.00
50368;BME280;36281;34.132;-118.018;2023-02-21T05:54:46;100049.25;;;14.46;46.34
50368;BME280;36281;34.132;-118.018;2023-02-21T05:57:15;100041.25;;;14.46;46.63
50368;BME280;36281;34.132;-118.018;2023-02-21T05:59:44;100022.84;;;14.45;46.53
50368;BME280;36281;34.132;-118.018;2023-02-21T06:02:15;100025.25;;;14.46;46.19
50368;BME280;36281;34.132;-118.018;2023-02-21T06:04:44;100033.88;;;14.48;46.48
50368;BME280;36281;34.132;-118.018;2023-02-21T06:07:15;100032.81;;;14.50;46.33
50368;BME280;36281;34.132;-118.018;2023-02-21T06:09:46;100023.78;;;14.51;46.13
50368;BME280;36281;34.132;-118.018;2023-02-21T06:12:15;100016.84;;;14.50;46.13
50368;BME280;36281;34.132;-118.018;2023-02-21T06:14:44;100017.41;;;14.52;46.60
50368;BME280;36281;34.132;-118.018;2023-02-21T06:17:13;100022.72;;;14.52;46.17
50368;BME280;36281;34.132;-118.018;2023-02-21T06:19:42;100019.25;;;14.51;46.55
50368;BME280;36281;34.132;-118.018;2023-02-21T06:22:11;100016.59;;;14.51;46.99
50368;BME280;36281;34.132;-118.018;2023-02-21T06:24:41;100017.66;;;14.50;47.10
50368;BME280;36281;34.132;-118.018;2023-02-21T06:27:10;100008.03;;;14.49;47.36
50368;BME280;36281;34.132;-118.018;2023-02-21T06:29:39;100003.94;;;14.46;47.34
50368;BME280;36281;34.132;-118.018;2023-02-21T06:32:08;100007.31;;;14.42;47.24
50368;BME280;36281;34.132;-118.018;2023-02-21T06:34:37;100009.66;;;14.38;47.29
50368;BME280;36281;34.132;-118.018;2023-02-21T06:37:06;100009.84;;;14.37;47.95
50368;BME280;36281;34.132;-118.018;2023-02-21T06:39:37;100011.72;;;14.36;47.68
50368;BME280;36281;34.132;-118.018;2023-02-21T06:42:12;99998.38;;;14.36;47.64
50368;BME280;36281;34.132;-118.018;2023-02-21T06:44:42;100004.75;;;14.35;47.65
50368;BME280;36281;34.132;-118.018;2023-02-21T06:47:12;99995.16;;;14.34;48.23
50368;BME280;36281;34.132;-118.018;2023-02-21T06:49:42;99989.84;;;14.34;47.98
50368;BME280;36281;34.132;-118.018;2023-02-21T06:52:11;99980.22;;;14.33;47.46
50368;BME280;36281;34.132;-118.018;2023-02-21T06:54:40;99978.38;;;14.34;46.94
50368;BME280;36281;34.132;-118.018;2023-02-21T06:57:11;99973.84;;;14.34;46.51
50368;BME280;36281;34.132;-118.018;2023-02-21T06:59:40;99971.19;;;14.34;46.88
50368;BME280;36281;34.132;-118.018;2023-02-21T07:02:15;99971.41;;;14.33;46.72
50368;BME280;36281;34.132;-118.018;2023-02-21T07:04:46;99977.56;;;14.33;47.19
50368;BME280;36281;34.132;-118.018;2023-02-21T07:07:15;99974.28;;;14.31;47.68
50368;BME280;36281;34.132;-118.018;2023-02-21T07:09:44;99974.28;;;14.31;47.67
50368;BME280;36281;34.132;-118.018;2023-02-21T07:12:15;99972.69;;;14.30;47.82
50368;BME280;36281;34.132;-118.018;2023-02-21T07:14:44;99975.09;;;14.32;47.91
50368;BME280;36281;34.132;-118.018;2023-02-21T07:17:13;99973.50;;;14.31;48.11
50368;BME280;36281;34.132;-118.018;2023-02-21T07:19:42;99976.41;;;14.29;47.84
50368;BME280;36281;34.132;-118.018;2023-02-21T07:22:11;99977.44;;;14.28;47.86
50368;BME280;36281;34.132;-118.018;2023-02-21T07:24:40;99988.66;;;14.30;48.27
50368;BME280;36281;34.132;-118.018;2023-02-21T07:27:09;99990.75;;;14.28;48.55
50368;BME280;36281;34.132;-118.018;2023-02-21T07:29:40;99991.56;;;14.29;48.88
50368;BME280;36281;34.132;-118.018;2023-02-21T07:32:08;99997.72;;;14.29;48.78
50368;BME280;36281;34.132;-118.018;2023-02-21T07:34:37;99992.63;;;14.28;49.08
50368;BME280;36281;34.132;-118.018;2023-02-21T07:37:07;99997.34;;;14.26;48.74
50368;BME280;36281;34.132;-118.018;2023-02-21T07:39:36;99997.00;;;14.22;48.77
50368;BME280;36281;34.132;-118.018;2023-02-21T07:42:05;99998.06;;;14.21;48.99
50368;BME280;36281;34.132;-118.018;2023-02-21T07:44:41;99998.28;;;14.19;50.05
50368;BME280;36281;34.132;-118.018;2023-02-21T07:47:10;99990.53;;;14.18;50.01
50368;BME280;36281;34.132;-118.018;2023-02-21T07:49:40;99988.56;;;14.13;49.76
50368;BME280;36281;34.132;-118.018;2023-02-21T07:52:09;99983.25;;;14.13;49.48
50368;BME280;36281;34.132;-118.018;2023-02-21T07:54:38;99980.78;;;14.12;50.17
50368;BME280;36281;34.132;-118.018;2023-02-21T07:57:07;99980.22;;;14.10;49.88
50368;BME280;36281;34.132;-118.018;2023-02-21T07:59:36;99976.75;;;14.09;50.70
50368;BME280;36281;34.132;-118.018;2023-02-21T08:02:08;99977.00;;;14.08;50.32
50368;BME280;36281;34.132;-118.018;2023-02-21T08:04:37;99974.78;;;14.05;49.78
50368;BME280;36281;34.132;-118.018;2023-02-21T08:07:07;99975.22;;;14.02;50.17
50368;BME280;36281;34.132;-118.018;2023-02-21T08:09:36;99968.28;;;14.01;50.52
50368;BME280;36281;34.132;-118.018;2023-02-21T08:12:06;99968.53;;;13.99;50.47
50368;BME280;36281;34.132;-118.018;2023-02-21T08:14:35;99961.81;;;13.96;50.48
50368;BME280;36281;34.132;-118.018;2023-02-21T08:17:04;99963.91;;;13.94;50.88
50368;BME280;36281;34.132;-118.018;2023-02-21T08:19:34;99969.69;;;13.91;51.48
50368;BME280;36281;34.132;-118.018;2023-02-21T08:22:03;99977.34;;;13.88;50.97
50368;BME280;36281;34.132;-118.018;2023-02-21T08:24:32;99967.38;;;13.83;51.25
50368;BME280;36281;34.132;-118.018;2023-02-21T08:27:01;99971.06;;;13.82;51.04
50368;BME280;36281;34.132;-118.018;2023-02-21T08:29:30;99962.75;;;13.79;51.08
50368;BME280;36281;34.132;-118.018;2023-02-21T08:31:59;99955.19;;;13.76;50.78
50368;BME280;36281;34.132;-118.018;2023-02-21T08:34:28;99955.44;;;13.74;51.61
50368;BME280;36281;34.132;-118.018;2023-02-21T08:36:59;99952.19;;;13.72;50.94
50368;BME280;36281;34.132;-118.018;2023-02-21T08:39:28;99957.97;;;13.69;51.82
50368;BME280;36281;34.132;-118.018;2023-02-21T08:41:59;99954.72;;;13.67;51.95
50368;BME280;36281;34.132;-118.018;2023-02-21T08:44:28;99952.53;;;13.64;51.97
50368;BME280;36281;34.132;-118.018;2023-02-21T08:46:57;99946.84;;;13.60;51.90
50368;BME280;36281;34.132;-118.018;2023-02-21T08:49:26;99949.50;;;13.60;52.10
50368;BME280;36281;34.132;-118.018;2023-02-21T08:51:55;99943.38;;;13.60;52.36
50368;BME280;36281;34.132;-118.018;2023-02-21T08:54:26;99947.91;;;13.59;52.69
50368;BME280;36281;34.132;-118.018;2023-02-21T08:56:55;99934.00;;;13.57;53.58
50368;BME280;36281;34.132;-118.018;2023-02-21T08:59:26;99936.09;;;13.55;53.24
50368;BME280;36281;34.132;-118.018;2023-02-21T09:02:00;99934.72;;;13.53;52.92
50368;BME280;36281;34.132;-118.018;2023-02-21T09:04:30;99930.88;;;13.49;52.83
50368;BME280;36281;34.132;-118.018;2023-02-21T09:06:59;99934.00;;;13.45;53.42
50368;BME280;36281;34.132;-118.018;2023-02-21T09:09:29;99932.81;;;13.41;53.97
50368;BME280;36281;34.132;-118.018;2023-02-21T09:11:58;99930.41;;;13.40;54.00
50368;BME280;36281;34.132;-118.018;2023-02-21T09:14:27;99932.47;;;13.38;53.29
50368;BME280;36281;34.132;-118.018;2023-02-21T09:16:56;99928.84;;;13.32;52.69
50368;BME280;36281;34.132;-118.018;2023-02-21T09:19:25;99938.69;;;13.32;53.27
50368;BME280;36281;34.132;-118.018;2023-02-21T09:21:55;99928.28;;;13.30;53.92
50368;BME280;36281;34.132;-118.018;2023-02-21T09:24:28;99936.72;;;13.27;53.80
50368;BME280;36281;34.132;-118.018;2023-02-21T09:26:58;99935.56;;;13.23;53.54
50368;BME280;36281;34.132;-118.018;2023-02-21T09:29:31;99941.31;;;13.20;53.47
50368;BME280;36281;34.132;-118.018;2023-02-21T09:32:13;99941.75;;;13.17;53.99
50368;BME280;36281;34.132;-118.018;2023-02-21T09:34:42;99936.53;;;13.10;53.92
50368;BME280;36281;34.132;-118.018;2023-02-21T09:37:11;99936.97;;;13.07;53.82
50368;BME280;36281;34.132;-118.018;2023-02-21T09:39:41;99934.19;;;13.02;54.31
50368;BME280;36281;34.132;-118.018;2023-02-21T09:42:14;99928.72;;;12.97;54.27
50368;BME280;36281;34.132;-118.018;2023-02-21T09:44:44;99928.59;;;12.92;53.59
50368;BME280;36281;34.132;-118.018;2023-02-21T09:47:17;99909.66;;;12.88;53.40
50368;BME280;36281;34.132;-118.018;2023-02-21T09:49:53;99921.16;;;12.82;53.08
50368;BME280;36281;34.132;-118.018;2023-02-21T09:52:31;99915.69;;;12.77;53.66
50368;BME280;36281;34.132;-118.018;2023-02-21T09:55:06;99916.84;;;12.70;54.60
50368;BME280;36281;34.132;-118.018;2023-02-21T09:57:36;99912.19;;;12.65;54.56
50368;BME280;36281;34.132;-118.018;2023-02-21T10:00:15;99917.38;;;12.60;54.12
50368;BME280;36281;34.132;-118.018;2023-02-21T10:02:53;99911.91;;;12.55;54.37
50368;BME280;36281;34.132;-118.018;2023-02-21T10:05:37;99907.03;;;12.52;54.51
50368;BME280;36281;34.132;-118.018;2023-02-21T10:08:14;99902.63;;;12.46;54.90
50368;BME280;36281;34.132;-118.018;2023-02-21T10:10:50;99902.25;;;12.42;55.21
50368;BME280;36281;34.132;-118.018;2023-02-21T10:13:33;99916.19;;;12.37;55.17
50368;BME280;36281;34.132;-118.018;2023-02-21T10:16:13;99902.19;;;12.30;55.08
50368;BME280;36281;34.132;-118.018;2023-02-21T10:18:47;99898.97;;;12.28;55.31
50368;BME280;36281;34.132;-118.018;2023-02-21T10:21:24;99894.31;;;12.24;55.19
50368;BME280;36281;34.132;-118.018;2023-02-21T10:23:53;99893.31;;;12.18;55.97
50368;BME280;36281;34.132;-118.018;2023-02-21T10:26:28;99885.81;;;12.15;55.45
50368;BME280;36281;34.132;-118.018;2023-02-21T10:28:58;99880.94;;;12.12;55.14
50368;BME280;36281;34.132;-118.018;2023-02-21T10:31:31;99871.78;;;12.08;55.69
50368;BME280;36281;34.132;-118.018;2023-02-21T10:34:02;99876.94;;;12.03;56.18
50368;BME280;36281;34.132;-118.018;2023-02-21T10:36:33;99863.53;;;11.98;56.04
50368;BME280;36281;34.132;-118.018;2023-02-21T10:39:08;99850.09;;;11.93;55.29
50368;BME280;36281;34.132;-118.018;2023-02-21T10:41:40;99853.22;;;11.89;55.10
50368;BME280;36281;34.132;-118.018;2023-02-21T10:44:13;99853.66;;;11.86;55.14
50368;BME280;36281;34.132;-118.018;2023-02-21T10:46:46;99856.13;;;11.81;55.51
50368;BME280;36281;34.132;-118.018;2023-02-21T10:49:22;99850.66;;;11.76;55.37
50368;BME280;36281;34.132;-118.018;2023-02-21T10:52:13;99846.00;;;11.72;55.33
50368;BME280;36281;34.132;-118.018;2023-02-21T10:54:59;99844.81;;;11.68;55.72
50368;BME280;36281;34.132;-118.018;2023-02-21T10:57:33;99838.13;;;11.65;55.92
50368;BME280;36281;34.132;-118.018;2023-02-21T11:00:02;99832.00;;;11.64;56.08
50368;BME280;36281;34.132;-118.018;2023-02-21T11:02:38;99825.53;;;11.60;56.35
50368;BME280;36281;34.132;-118.018;2023-02-21T11:05:12;99824.91;;;11.58;56.27
50368;BME280;36281;34.132;-118.018;2023-02-21T11:07:56;99817.03;;;11.52;56.21
50368;BME280;36281;34.132;-118.018;2023-02-21T11:10:30;99812.19;;;11.49;55.84
50368;BME280;36281;34.132;-118.018;2023-02-21T11:13:13;99806.50;;;11.45;56.59
50368;BME280;36281;34.132;-118.018;2023-02-21T11:15:44;99805.06;;;11.43;56.46
50368;BME280;36281;34.132;-118.018;2023-02-21T11:18:16;99801.47;;;11.37;57.01
50368;BME280;36281;34.132;-118.018;2023-02-21T11:20:46;99800.88;;;11.35;56.50
50368;BME280;36281;34.132;-118.018;2023-02-21T11:23:21;99811.09;;;11.31;56.42
50368;BME280;36281;34.132;-118.018;2023-02-21T11:25:57;99804.41;;;11.29;56.74
50368;BME280;36281;34.132;-118.018;2023-02-21T11:28:29;99810.94;;;11.26;57.02
50368;BME280;36281;34.132;-118.018;2023-02-21T11:31:14;99812.16;;;11.24;56.69
50368;BME280;36281;34.132;-118.018;2023-02-21T11:33:50;99800.03;;;11.16;56.56
50368;BME280;36281;34.132;-118.018;2023-02-21T11:36:27;99805.97;;;11.11;56.62
50368;BME280;36281;34.132;-118.018;2023-02-21T11:39:02;99802.94;;;11.08;56.96
50368;BME280;36281;34.132;-118.018;2023-02-21T11:41:36;99797.47;;;11.03;56.87
50368;BME280;36281;34.132;-118.018;2023-02-21T11:44:26;99792.81;;;10.98;57.40
50368;BME280;36281;34.132;-118.018;2023-02-21T11:47:04;99794.28;;;10.94;57.92
50368;BME280;36281;34.132;-118.018;2023-02-21T11:49:42;99787.00;;;10.90;57.89
50368;BME280;36281;34.132;-118.018;2023-02-21T11:52:21;99792.53;;;10.81;57.64
50368;BME280;36281;34.132;-118.018;2023-02-21T11:54:53;99788.69;;;10.77;57.67
50368;BME280;36281;34.132;-118.018;2023-02-21T11:57:27;99789.78;;;10.70;57.89
50368;BME280;36281;34.132;-118.018;2023-02-21T12:00:02;99783.66;;;10.69;57.93
50368;BME280;36281;34.132;-118.018;2023-02-21T12:02:52;99791.22;;;10.66;58.31
50368;BME280;36281;34.132;-118.018;2023-02-21T12:05:38;99787.16;;;10.63;58.59
50368;BME280;36281;34.132;-118.018;2023-02-21T12:08:38;99782.31;;;10.60;58.95
50368;BME280;36281;34.132;-118.018;2023-02-21T12:11:25;99772.13;;;10.57;58.97
50368;BME280;36281;34.132;-118.018;2023-02-21T12:14:11;99779.47;;;10.55;58.90
50368;BME280;36281;34.132;-118.018;2023-02-21T12:16:55;99780.47;;;10.54;58.90
50368;BME280;36281;34.132;-118.018;2023-02-21T12:19:44;99781.34;;;10.48;58.78
50368;BME280;36281;34.132;-118.018;2023-02-21T12:22:26;99773.84;;;10.45;58.88
50368;BME280;36281;34.132;-118.018;2023-02-21T12:25:10;99777.94;;;10.41;58.96
50368;BME280;36281;34.132;-118.018;2023-02-21T12:27:49;99780.78;;;10.39;59.27
50368;BME280;36281;34.132;-118.018;2023-02-21T12:30:33;99771.44;;;10.37;59.39
50368;BME280;36281;34.132;-118.018;2023-02-21T12:33:16;99769.00;;;10.35;59.34
50368;BME280;36281;34.132;-118.018;2023-02-21T12:36:07;99774.94;;;10.30;59.60
50368;BME280;36281;34.132;-118.018;2023-02-21T12:41:42;99759.25;;;10.22;59.98
50368;BME280;36281;34.132;-118.018;2023-02-21T12:44:17;99767.41;;;10.21;60.39
50368;BME280;36281;34.132;-118.018;2023-02-21T12:46:51;99769.44;;;10.19;60.37
50368;BME280;36281;34.132;-118.018;2023-02-21T12:49:28;99760.13;;;10.16;60.28
50368;BME280;36281;34.132;-118.018;2023-02-21T12:52:03;99773.56;;;10.15;60.04
50368;BME280;36281;34.132;-118.018;2023-02-21T12:54:41;99765.00;;;10.13;60.00
50368;BME280;36281;34.132;-118.018;2023-02-21T12:57:15;99758.31;;;10.10;60.03
50368;BME280;36281;34.132;-118.018;2023-02-21T12:59:52;99753.84;;;10.10;60.26
50368;BME280;36281;34.132;-118.018;2023-02-21T13:02:36;99745.50;;;10.07;60.22
50368;BME280;36281;34.132;-118.018;2023-02-21T13:05:15;99740.63;;;10.04;60.85
50368;BME280;36281;34.132;-118.018;2023-02-21T13:07:50;99741.88;;;10.01;61.47
50368;BME280;36281;34.132;-118.018;2023-02-21T13:10:25;99726.41;;;9.98;61.50
50368;BME280;36281;34.132;-118.018;2023-02-21T13:12:57;99722.13;;;9.97;61.40
50368;BME280;36281;34.132;-118.018;2023-02-21T13:15:29;99736.63;;;9.95;61.92